createdAt,value
2018-07-30T00:01:12.867Z,24.00
2018-07-30T00:03:41.326Z,23.90
2018-07-30T00:06:09.767Z,23.90
2018-07-30T00:08:38.273Z,24.00
2018-07-30T00:11:07.314Z,24.00
2018-07-30T00:13:35.777Z,24.00
2018-07-30T00:16:04.282Z,23.90
2018-07-30T00:18:33.608Z,24.00
2018-07-30T00:21:02.127Z,24.00
2018-07-30T00:23:30.604Z,24.00
2018-07-30T00:25:59.049Z,24.00
2018-07-30T00:28:27.524Z,24.00
2018-07-30T00:30:56.018Z,23.90
2018-07-30T00:33:24.568Z,23.80
2018-07-30T00:35:53.144Z,23.80
2018-07-30T00:38:22.332Z,23.70
2018-07-30T00:40:50.808Z,23.80
2018-07-30T00:43:19.271Z,23.80
2018-07-30T00:45:47.725Z,23.80
2018-07-30T00:48:16.244Z,23.80
2018-07-30T00:50:44.668Z,23.90
2018-07-30T00:55:41.305Z,23.90
2018-07-30T00:58:09.772Z,23.90
2018-07-30T01:00:38.268Z,23.90
2018-07-30T01:03:07.242Z,23.90
2018-07-30T01:05:35.719Z,23.90
2018-07-30T01:08:04.166Z,23.90
2018-07-30T01:10:33.376Z,23.90
2018-07-30T01:13:01.895Z,23.90
2018-07-30T01:15:30.320Z,23.90
2018-07-30T01:17:58.901Z,23.90
2018-07-30T01:20:27.441Z,23.90
2018-07-30T01:25:24.082Z,23.90
2018-07-30T01:27:52.557Z,23.90
2018-07-30T01:30:21.129Z,23.80
2018-07-30T01:32:50.278Z,23.90
2018-07-30T01:35:19.693Z,23.80
2018-07-30T01:37:48.283Z,23.80
2018-07-30T01:40:17.001Z,23.80
2018-07-30T01:42:45.509Z,23.70
2018-07-30T01:45:14.014Z,23.60
2018-07-30T01:47:42.491Z,23.60
2018-07-30T01:50:11.078Z,23.60
2018-07-30T01:52:39.558Z,23.50
2018-07-30T01:55:08.044Z,23.50
2018-07-30T01:57:36.562Z,23.40
2018-07-30T02:00:05.785Z,23.40
2018-07-30T02:02:38.501Z,23.40
2018-07-30T02:05:06.979Z,23.40
2018-07-30T02:07:35.519Z,23.40
2018-07-30T02:10:03.999Z,23.40
2018-07-30T02:12:32.650Z,23.40
2018-07-30T02:15:01.238Z,23.40
2018-07-30T02:17:29.760Z,23.40
2018-07-30T02:19:58.254Z,23.40
2018-07-30T02:22:26.826Z,23.40
2018-07-30T02:27:23.646Z,23.40
2018-07-30T02:29:52.062Z,23.40
2018-07-30T02:32:20.550Z,23.40
2018-07-30T02:34:49.092Z,23.40
2018-07-30T02:37:17.658Z,23.40
2018-07-30T02:39:46.848Z,23.40
2018-07-30T02:42:15.298Z,23.40
2018-07-30T02:44:43.722Z,23.40
2018-07-30T02:47:12.172Z,23.40
2018-07-30T02:49:40.597Z,23.40
2018-07-30T02:52:09.137Z,23.40
2018-07-30T02:54:37.593Z,23.40
2018-07-30T02:57:06.048Z,23.50
2018-07-30T02:59:34.500Z,23.40
2018-07-30T03:02:03.005Z,23.40
2018-07-30T03:04:31.421Z,23.50
2018-07-30T03:06:59.897Z,23.40
2018-07-30T03:09:28.509Z,23.40
2018-07-30T03:11:56.919Z,23.40
2018-07-30T03:14:25.391Z,23.40
2018-07-30T03:16:53.848Z,23.50
2018-07-30T03:19:22.322Z,23.40
2018-07-30T03:21:56.893Z,23.40
2018-07-30T03:24:26.277Z,23.40
2018-07-30T03:26:54.817Z,23.40
2018-07-30T03:29:23.328Z,23.40
2018-07-30T03:31:52.302Z,23.30
2018-07-30T03:34:20.789Z,23.30
2018-07-30T03:36:49.342Z,23.30
2018-07-30T03:39:17.828Z,23.30
2018-07-30T03:41:46.326Z,23.30
2018-07-30T03:44:14.830Z,23.30
2018-07-30T03:46:44.067Z,23.30
2018-07-30T03:49:12.591Z,23.30
2018-07-30T03:51:41.073Z,23.30
2018-07-30T03:54:09.629Z,23.30
2018-07-30T03:56:38.124Z,23.20
2018-07-30T03:59:06.708Z,23.20
2018-07-30T04:01:35.224Z,23.20
2018-07-30T04:04:03.744Z,23.20
2018-07-30T04:06:32.309Z,23.10
2018-07-30T04:09:00.785Z,23.10
2018-07-30T04:11:29.339Z,23.10
2018-07-30T04:16:25.977Z,23.00
2018-07-30T04:18:54.649Z,23.00
2018-07-30T04:21:23.525Z,23.00
2018-07-30T04:23:51.956Z,23.00
2018-07-30T04:26:20.589Z,23.00
2018-07-30T04:28:49.194Z,23.10
2018-07-30T04:31:17.705Z,23.10
2018-07-30T04:33:46.226Z,23.10
2018-07-30T04:36:14.722Z,23.10
2018-07-30T04:38:43.150Z,23.20
2018-07-30T04:41:12.334Z,23.20
2018-07-30T04:43:40.892Z,23.20
2018-07-30T04:46:09.315Z,23.20
2018-07-30T04:48:37.785Z,23.20
2018-07-30T04:51:06.400Z,23.20
2018-07-30T04:53:34.914Z,23.20
2018-07-30T04:56:03.416Z,23.20
2018-07-30T04:58:31.903Z,23.30
2018-07-30T05:01:00.376Z,23.30
2018-07-30T05:05:57.074Z,23.30
2018-07-30T05:08:25.571Z,23.40
2018-07-30T05:10:54.107Z,23.40
2018-07-30T05:13:22.552Z,23.40
2018-07-30T05:15:51.023Z,23.40
2018-07-30T05:18:20.226Z,23.40
2018-07-30T05:20:48.728Z,23.50
2018-07-30T05:23:17.265Z,23.40
2018-07-30T05:25:46.098Z,23.40
2018-07-30T05:28:14.597Z,23.40
2018-07-30T05:30:43.228Z,23.40
2018-07-30T05:33:11.725Z,23.30
2018-07-30T05:35:40.434Z,23.40
2018-07-30T05:38:08.998Z,23.60
2018-07-30T05:40:37.598Z,23.70
2018-07-30T05:43:06.026Z,23.80
2018-07-30T05:45:34.473Z,23.80
2018-07-30T05:48:03.014Z,23.90
2018-07-30T05:50:31.579Z,23.90
2018-07-30T05:53:00.092Z,24.00
2018-07-30T05:55:28.707Z,24.00
2018-07-30T05:57:57.237Z,24.10
2018-07-30T06:00:26.253Z,24.20
2018-07-30T06:02:55.447Z,24.20
2018-07-30T06:05:23.988Z,24.20
2018-07-30T06:07:52.445Z,24.20
2018-07-30T06:10:21.000Z,24.20
2018-07-30T06:12:49.498Z,24.20
2018-07-30T06:15:18.048Z,24.20
2018-07-30T06:17:46.536Z,24.20
2018-07-30T06:20:14.987Z,24.20
2018-07-30T06:22:43.472Z,24.20
2018-07-30T06:25:11.949Z,24.20
2018-07-30T06:27:41.871Z,24.30
2018-07-30T06:30:10.422Z,24.30
2018-07-30T06:32:39.230Z,24.30
2018-07-30T06:35:08.123Z,24.30
2018-07-30T06:37:36.883Z,24.30
2018-07-30T06:40:05.597Z,24.40
2018-07-30T06:42:34.032Z,24.40
2018-07-30T06:45:02.518Z,24.50
2018-07-30T06:47:31.101Z,24.60
2018-07-30T06:49:59.629Z,24.70
2018-07-30T06:52:28.706Z,24.80
2018-07-30T06:54:57.189Z,24.80
2018-07-30T06:57:25.664Z,24.90
2018-07-30T06:59:54.205Z,24.90
2018-07-30T07:02:22.617Z,24.90
2018-07-30T07:04:51.136Z,24.90
2018-07-30T07:07:19.631Z,24.90
2018-07-30T07:09:48.097Z,25.00
2018-07-30T07:12:16.569Z,25.10
2018-07-30T07:14:45.057Z,25.20
2018-07-30T07:17:14.001Z,25.20
2018-07-30T07:22:10.845Z,25.60
2018-07-30T07:24:39.381Z,25.80
2018-07-30T07:27:07.969Z,26.00
2018-07-30T07:29:36.492Z,26.40
2018-07-30T07:32:05.367Z,26.80
2018-07-30T07:34:33.791Z,27.40
2018-07-30T07:37:02.238Z,27.60
2018-07-30T07:39:30.785Z,27.70
2018-07-30T07:41:59.370Z,27.60
2018-07-30T07:44:27.904Z,27.50
2018-07-30T07:46:56.753Z,27.40
2018-07-30T07:49:25.310Z,27.40
2018-07-30T07:51:53.782Z,27.50
2018-07-30T07:54:22.264Z,27.50
2018-07-30T07:56:50.729Z,27.70
2018-07-30T07:59:19.358Z,28.00
2018-07-30T08:01:47.844Z,28.00
2018-07-30T08:04:16.351Z,28.00
2018-07-30T08:06:44.780Z,28.00
2018-07-30T08:09:13.277Z,27.90
2018-07-30T08:11:42.546Z,27.90
2018-07-30T08:14:11.447Z,27.70
2018-07-30T08:16:39.919Z,27.90
2018-07-30T08:19:08.365Z,27.90
2018-07-30T08:21:36.841Z,27.80
2018-07-30T08:24:05.483Z,27.90
2018-07-30T08:26:33.940Z,28.30
2018-07-30T08:29:02.483Z,28.30
2018-07-30T08:33:59.582Z,28.60
2018-07-30T08:36:28.032Z,29.10
2018-07-30T08:38:56.522Z,29.50
2018-07-30T08:41:25.073Z,29.60
2018-07-30T08:43:53.495Z,30.10
2018-07-30T08:46:21.936Z,29.90
2018-07-30T08:48:50.436Z,29.80
2018-07-30T08:51:19.438Z,30.10
2018-07-30T08:53:47.885Z,30.20
2018-07-30T08:56:16.425Z,30.30
2018-07-30T08:58:44.926Z,30.70
2018-07-30T09:01:13.381Z,30.80
2018-07-30T09:03:41.859Z,30.70
2018-07-30T09:06:10.484Z,31.00
2018-07-30T09:08:38.941Z,31.00
2018-07-30T09:11:07.390Z,31.20
2018-07-30T09:13:35.831Z,31.50
2018-07-30T09:16:04.371Z,31.60
2018-07-30T09:18:32.825Z,31.50
2018-07-30T09:21:01.263Z,31.20
2018-07-30T09:23:29.712Z,31.00
2018-07-30T09:25:58.265Z,30.90
2018-07-30T09:28:26.705Z,30.90
2018-07-30T09:30:55.145Z,30.60
2018-07-30T09:33:23.606Z,30.50
2018-07-30T09:35:52.238Z,30.50
2018-07-30T09:38:20.709Z,30.70
2018-07-30T09:40:49.130Z,30.70
2018-07-30T09:43:17.570Z,31.30
2018-07-30T09:45:46.036Z,32.30
2018-07-30T09:48:14.519Z,33.10
2018-07-30T09:50:43.048Z,33.20
2018-07-30T09:53:11.562Z,33.60
2018-07-30T09:55:40.078Z,34.00
2018-07-30T09:58:08.482Z,33.80
2018-07-30T10:00:42.404Z,34.10
2018-07-30T10:03:10.831Z,34.10
2018-07-30T10:05:39.321Z,34.80
2018-07-30T10:08:07.792Z,35.50
2018-07-30T10:10:36.221Z,35.50
2018-07-30T10:13:04.679Z,35.20
2018-07-30T10:15:33.186Z,35.60
2018-07-30T10:18:01.733Z,35.40
2018-07-30T10:20:30.120Z,35.20
2018-07-30T10:22:58.559Z,35.20
2018-07-30T10:25:27.002Z,34.80
2018-07-30T10:27:55.496Z,34.60
2018-07-30T10:30:24.008Z,34.70
2018-07-30T10:32:58.905Z,34.40
2018-07-30T10:35:27.370Z,34.50
2018-07-30T10:37:57.124Z,34.70
2018-07-30T10:40:25.781Z,34.90
2018-07-30T10:42:54.780Z,34.70
2018-07-30T10:45:23.494Z,34.40
2018-07-30T10:47:51.990Z,34.10
2018-07-30T10:50:20.590Z,34.30
2018-07-30T10:55:18.488Z,34.40
2018-07-30T10:57:47.084Z,34.50
2018-07-30T11:00:15.981Z,34.40
2018-07-30T11:02:44.914Z,34.20
2018-07-30T11:05:13.676Z,34.10
2018-07-30T11:07:42.197Z,34.00
2018-07-30T11:10:10.681Z,33.80
2018-07-30T11:12:39.213Z,33.60
2018-07-30T11:15:07.620Z,33.30
2018-07-30T11:17:36.123Z,33.10
2018-07-30T11:20:04.783Z,33.10
2018-07-30T11:22:33.506Z,33.30
2018-07-30T11:25:02.002Z,33.80
2018-07-30T11:27:31.185Z,34.80
2018-07-30T11:29:59.703Z,35.40
2018-07-30T11:32:28.192Z,35.60
2018-07-30T11:34:56.654Z,35.50
2018-07-30T11:37:25.790Z,35.60
2018-07-30T11:39:54.670Z,35.50
2018-07-30T11:42:23.276Z,35.50
2018-07-30T11:44:51.753Z,35.40
2018-07-30T11:47:20.432Z,35.90
2018-07-30T11:49:48.894Z,36.20
2018-07-30T11:52:17.332Z,36.40
2018-07-30T11:54:45.826Z,36.40
2018-07-30T11:57:14.471Z,36.30
2018-07-30T11:59:42.948Z,36.30
2018-07-30T12:02:11.479Z,36.10
2018-07-30T12:04:40.289Z,36.70
2018-07-30T12:07:08.884Z,37.00
2018-07-30T12:09:37.358Z,37.40
2018-07-30T12:12:05.882Z,37.50
2018-07-30T12:14:34.349Z,38.50
2018-07-30T12:17:02.898Z,39.00
2018-07-30T12:19:31.408Z,38.40
2018-07-30T12:21:59.905Z,37.50
2018-07-30T12:24:28.365Z,37.30
2018-07-30T12:26:57.021Z,37.30
2018-07-30T12:29:25.569Z,37.20
2018-07-30T12:31:54.004Z,37.40
2018-07-30T12:34:22.537Z,37.20
2018-07-30T12:36:51.003Z,36.80
2018-07-30T12:39:19.570Z,36.70
2018-07-30T12:41:48.022Z,36.60
2018-07-30T12:44:16.578Z,36.50
2018-07-30T12:46:45.025Z,36.30
2018-07-30T12:49:13.467Z,36.10
2018-07-30T12:51:41.988Z,36.00
2018-07-30T12:54:10.484Z,36.40
2018-07-30T12:56:38.937Z,36.40
2018-07-30T12:59:07.474Z,36.10
2018-07-30T13:01:35.924Z,36.60
2018-07-30T13:04:04.406Z,36.90
2018-07-30T13:06:32.857Z,37.50
2018-07-30T13:09:01.338Z,37.60
2018-07-30T13:11:29.925Z,38.50
2018-07-30T13:13:58.363Z,38.60
2018-07-30T13:16:26.805Z,38.50
2018-07-30T13:18:55.350Z,37.80
2018-07-30T13:21:23.769Z,37.20
2018-07-30T13:23:52.240Z,36.80
2018-07-30T13:26:21.367Z,36.80
2018-07-30T13:28:49.812Z,37.60
2018-07-30T13:31:18.393Z,38.20
2018-07-30T13:33:46.816Z,39.10
2018-07-30T13:36:15.587Z,39.80
2018-07-30T13:38:44.174Z,40.20
2018-07-30T13:41:12.700Z,40.40
2018-07-30T13:43:41.183Z,40.90
2018-07-30T13:46:09.608Z,41.20
2018-07-30T13:48:38.196Z,41.00
2018-07-30T13:51:06.940Z,40.30
2018-07-30T13:53:35.425Z,39.70
2018-07-30T13:56:04.009Z,38.90
2018-07-30T13:58:32.487Z,38.00
2018-07-30T14:01:01.473Z,37.40
2018-07-30T14:03:29.988Z,36.70
2018-07-30T14:05:58.429Z,36.30
2018-07-30T14:08:26.844Z,36.00
2018-07-30T14:10:55.394Z,35.70
2018-07-30T14:13:23.838Z,35.50
2018-07-30T14:15:52.294Z,35.30
2018-07-30T14:18:21.049Z,35.10
2018-07-30T14:20:49.446Z,34.80
2018-07-30T14:23:17.905Z,34.60
2018-07-30T14:25:46.348Z,34.40
2018-07-30T14:28:14.840Z,34.10
2018-07-30T14:30:43.434Z,33.90
2018-07-30T14:33:12.025Z,33.70
2018-07-30T14:35:40.650Z,33.50
2018-07-30T14:38:09.299Z,33.50
2018-07-30T14:40:38.043Z,33.60
2018-07-30T14:43:06.541Z,33.50
2018-07-30T14:45:36.180Z,33.20
2018-07-30T14:48:05.456Z,33.00
2018-07-30T14:50:34.064Z,32.90
2018-07-30T14:53:02.560Z,32.80
2018-07-30T14:55:31.757Z,32.80
2018-07-30T14:58:00.326Z,32.80
2018-07-30T15:00:28.933Z,32.80
2018-07-30T15:02:57.480Z,32.60
2018-07-30T15:05:26.545Z,32.60
2018-07-30T15:07:55.071Z,32.60
2018-07-30T15:10:23.523Z,32.50
2018-07-30T15:12:52.282Z,32.60
2018-07-30T15:15:20.794Z,32.60
2018-07-30T15:17:49.767Z,32.60
2018-07-30T15:20:18.969Z,32.50
2018-07-30T15:22:47.457Z,32.50
2018-07-30T15:25:16.007Z,32.60
2018-07-30T15:27:44.535Z,32.80
2018-07-30T15:30:13.121Z,33.20
2018-07-30T15:32:41.621Z,34.40
2018-07-30T15:35:10.150Z,35.10
2018-07-30T15:37:41.612Z,34.70
2018-07-30T15:40:10.105Z,34.90
2018-07-30T15:42:38.659Z,35.30
2018-07-30T15:45:07.148Z,34.60
2018-07-30T15:47:35.793Z,33.80
2018-07-30T15:50:06.289Z,33.30
2018-07-30T15:52:34.849Z,33.00
2018-07-30T15:55:03.393Z,32.70
2018-07-30T15:57:32.430Z,32.40
2018-07-30T16:00:01.150Z,32.30
2018-07-30T16:02:29.777Z,32.10
2018-07-30T16:05:00.351Z,32.00
2018-07-30T16:07:28.831Z,31.80
2018-07-30T16:12:31.170Z,31.80
2018-07-30T16:14:59.601Z,31.80
2018-07-30T16:17:28.186Z,31.80
2018-07-30T16:19:57.700Z,32.10
2018-07-30T16:22:27.230Z,32.30
2018-07-30T16:27:29.568Z,32.50
2018-07-30T16:32:32.000Z,32.40
2018-07-30T16:35:01.118Z,32.30
2018-07-30T16:37:29.635Z,32.20
2018-07-30T16:42:31.939Z,32.00
2018-07-30T16:45:00.556Z,31.90
2018-07-30T16:47:29.094Z,31.80
2018-07-30T16:49:57.865Z,31.60
2018-07-30T16:55:00.575Z,31.40
2018-07-30T16:57:29.193Z,31.30
2018-07-30T16:59:57.800Z,31.20
2018-07-30T17:02:26.327Z,31.20
2018-07-30T17:04:55.071Z,31.20
2018-07-30T17:07:23.957Z,31.10
2018-07-30T17:09:52.435Z,31.10
2018-07-30T17:12:21.136Z,31.10
2018-07-30T17:14:49.742Z,31.00
2018-07-30T17:17:19.134Z,31.10
2018-07-30T17:19:47.983Z,31.00
2018-07-30T17:22:16.500Z,31.00
2018-07-30T17:24:45.595Z,30.90
2018-07-30T17:27:15.328Z,30.50
2018-07-30T17:29:46.536Z,30.20
2018-07-30T17:32:15.933Z,29.80
2018-07-30T17:34:44.671Z,29.70
2018-07-30T17:37:13.610Z,29.50
2018-07-30T17:39:42.229Z,29.10
2018-07-30T17:42:11.396Z,28.80
2018-07-30T17:44:40.061Z,28.50
2018-07-30T17:47:10.121Z,28.20
2018-07-30T17:49:39.190Z,27.80
2018-07-30T17:52:09.527Z,27.30
2018-07-30T17:54:38.621Z,26.90
2018-07-30T17:57:08.607Z,26.50
2018-07-30T17:59:37.126Z,26.30
2018-07-30T18:02:05.731Z,26.10
2018-07-30T18:04:34.300Z,26.00
2018-07-30T18:07:02.827Z,25.80
2018-07-30T18:09:31.343Z,25.60
2018-07-30T18:11:59.927Z,25.40
2018-07-30T18:16:56.594Z,25.30
2018-07-30T18:19:25.092Z,25.30
2018-07-30T18:21:53.662Z,25.20
2018-07-30T18:24:22.181Z,25.10
2018-07-30T18:29:19.026Z,25.00
2018-07-30T18:31:47.564Z,25.00
2018-07-30T18:34:16.085Z,24.80
2018-07-30T18:36:44.589Z,24.80
2018-07-30T18:39:13.211Z,24.70
2018-07-30T18:41:41.776Z,24.60
2018-07-30T18:44:10.310Z,24.50
2018-07-30T18:46:38.885Z,24.40
2018-07-30T18:49:08.023Z,24.20
2018-07-30T18:51:36.481Z,24.10
2018-07-30T18:54:05.101Z,23.90
2018-07-30T18:56:33.591Z,23.70
2018-07-30T18:59:02.106Z,23.60
2018-07-30T19:01:30.666Z,23.40
2018-07-30T19:03:59.336Z,23.30
2018-07-30T19:06:28.349Z,23.10
2018-07-30T19:08:57.032Z,23.00
2018-07-30T19:11:25.696Z,22.80
2018-07-30T19:13:54.144Z,22.80
2018-07-30T19:16:22.805Z,22.70
2018-07-30T19:18:51.546Z,22.60
2018-07-30T19:21:20.116Z,22.60
2018-07-30T19:23:48.807Z,22.60
2018-07-30T19:26:17.790Z,22.50
2018-07-30T19:28:46.375Z,22.40
2018-07-30T19:31:14.858Z,22.40
2018-07-30T19:33:43.618Z,22.30
2018-07-30T19:36:12.456Z,22.30
2018-07-30T19:38:40.989Z,22.20
2018-07-30T19:41:09.489Z,22.20
2018-07-30T19:43:38.356Z,22.30
2018-07-30T19:46:06.946Z,22.20
2018-07-30T19:48:35.757Z,22.10
2018-07-30T19:51:12.048Z,22.10
2018-07-30T19:53:42.060Z,22.00
2018-07-30T19:56:12.077Z,22.00
2018-07-30T19:58:42.061Z,22.00
2018-07-30T20:01:10.961Z,22.00
2018-07-30T20:03:39.766Z,22.00
2018-07-30T20:06:08.840Z,21.90
2018-07-30T20:08:37.885Z,21.90
2018-07-30T20:11:08.165Z,21.90
2018-07-30T20:13:38.195Z,21.90
2018-07-30T20:16:07.213Z,21.80
2018-07-30T20:18:36.195Z,21.80
2018-07-30T20:21:04.979Z,21.80
2018-07-30T20:23:34.993Z,21.80
2018-07-30T20:26:03.971Z,22.00
2018-07-30T20:28:32.563Z,22.10
2018-07-30T20:31:01.354Z,22.10
2018-07-30T20:33:30.284Z,22.10
2018-07-30T20:35:59.008Z,22.10
2018-07-30T20:38:27.674Z,22.10
2018-07-30T20:40:56.259Z,22.10
2018-07-30T20:43:24.833Z,22.10
2018-07-30T20:45:53.375Z,22.10
2018-07-30T20:48:21.978Z,22.20
2018-07-30T20:50:50.520Z,22.10
2018-07-30T20:53:19.152Z,22.10
2018-07-30T20:55:47.918Z,22.00
2018-07-30T20:58:16.503Z,22.00
2018-07-30T21:00:45.090Z,21.90
2018-07-30T21:03:13.615Z,21.90
2018-07-30T21:05:43.579Z,21.80
2018-07-30T21:08:13.554Z,21.80
2018-07-30T21:10:42.843Z,21.80
2018-07-30T21:13:11.320Z,21.80
2018-07-30T21:15:39.828Z,21.80
2018-07-30T21:18:08.416Z,21.80
2018-07-30T21:20:37.029Z,21.80
2018-07-30T21:23:05.676Z,21.70
2018-07-30T21:25:34.182Z,21.70
2018-07-30T21:28:03.730Z,21.70
2018-07-30T21:30:32.187Z,21.80
2018-07-30T21:33:01.575Z,21.80
2018-07-30T21:35:30.120Z,21.80
2018-07-30T21:37:58.631Z,21.70
2018-07-30T21:40:27.277Z,21.80
2018-07-30T21:42:55.787Z,21.70
2018-07-30T21:45:24.230Z,21.70
2018-07-30T21:47:53.403Z,21.60
2018-07-30T21:50:21.960Z,21.50
2018-07-30T21:52:50.450Z,21.40
2018-07-30T21:55:18.908Z,21.40
2018-07-30T21:57:47.427Z,21.50
2018-07-30T22:00:22.919Z,21.40
2018-07-30T22:02:52.085Z,21.40
2018-07-30T22:05:20.537Z,21.40
2018-07-30T22:07:54.913Z,21.40
2018-07-30T22:10:25.217Z,21.40
2018-07-30T22:12:54.436Z,21.40
2018-07-30T22:15:24.028Z,21.40
2018-07-30T22:17:53.266Z,21.30
2018-07-30T22:20:21.774Z,21.30
2018-07-30T22:22:50.271Z,21.30
2018-07-30T22:25:19.951Z,21.30
2018-07-30T22:27:48.553Z,21.30
2018-07-30T22:30:17.058Z,21.20
2018-07-30T22:32:45.478Z,21.20
2018-07-30T22:37:42.781Z,21.20
2018-07-30T22:40:11.299Z,21.30
2018-07-30T22:42:39.786Z,21.20
2018-07-30T22:45:08.278Z,21.20
2018-07-30T22:47:36.756Z,21.20
2018-07-30T22:50:05.237Z,21.20
2018-07-30T22:52:33.845Z,21.20
2018-07-30T22:55:02.446Z,21.20
2018-07-30T22:57:30.978Z,21.10
2018-07-30T22:59:59.538Z,21.10
2018-07-30T23:02:28.787Z,21.10
2018-07-30T23:04:57.252Z,21.10
2018-07-30T23:07:25.735Z,21.00
2018-07-30T23:09:54.260Z,21.00
2018-07-30T23:12:22.806Z,21.00
2018-07-30T23:14:51.279Z,20.90
2018-07-30T23:17:19.710Z,20.90
2018-07-30T23:19:48.306Z,20.90
2018-07-30T23:22:16.779Z,20.90
2018-07-30T23:24:45.922Z,20.90
2018-07-30T23:27:14.613Z,20.90
2018-07-30T23:29:43.054Z,20.90
2018-07-30T23:32:11.613Z,20.90
2018-07-30T23:34:40.627Z,20.90
2018-07-30T23:37:09.190Z,20.90
2018-07-30T23:39:37.564Z,20.90
2018-07-30T23:42:06.204Z,20.90
2018-07-30T23:44:34.694Z,20.90
2018-07-30T23:47:03.128Z,20.80
2018-07-30T23:49:31.561Z,20.80
2018-07-30T23:52:00.108Z,20.70
2018-07-30T23:54:28.535Z,20.70
2018-07-30T23:56:56.984Z,20.70
2018-07-30T23:59:25.418Z,20.70
